createdAt,value
2022-09-25T00:01:10.102Z,51.50
2022-09-25T00:03:38.135Z,51.31
2022-09-25T00:06:08.798Z,50.56
2022-09-25T00:08:37.079Z,50.73
2022-09-25T00:11:13.694Z,50.87
2022-09-25T00:13:42.901Z,51.25
2022-09-25T00:16:12.154Z,51.37
2022-09-25T00:18:57.992Z,51.64
2022-09-25T00:21:29.593Z,51.15
2022-09-25T00:24:05.227Z,51.33
2022-09-25T00:26:35.169Z,50.90
2022-09-25T00:29:03.195Z,51.08
2022-09-25T00:31:31.208Z,50.42
2022-09-25T00:34:01.134Z,50.87
2022-09-25T00:36:28.825Z,50.88
2022-09-25T00:38:56.152Z,51.31
2022-09-25T00:41:26.007Z,51.66
2022-09-25T00:43:56.376Z,51.58
2022-09-25T00:46:42.526Z,51.30
2022-09-25T00:49:22.021Z,51.37
2022-09-25T00:52:00.322Z,51.08
2022-09-25T00:54:31.898Z,51.10
2022-09-25T00:57:04.150Z,51.41
2022-09-25T00:59:38.980Z,51.37
2022-09-25T01:02:07.704Z,51.50
2022-09-25T01:04:38.298Z,51.72
2022-09-25T01:07:05.585Z,51.90
2022-09-25T01:09:32.724Z,51.83
2022-09-25T01:11:59.714Z,51.84
2022-09-25T01:14:27.170Z,51.92
2022-09-25T01:17:20.500Z,51.77
2022-09-25T01:20:02.292Z,51.86
2022-09-25T01:23:06.499Z,51.62
2022-09-25T01:25:45.617Z,51.30
2022-09-25T01:28:49.730Z,51.39
2022-09-25T01:31:27.700Z,50.90
2022-09-25T01:34:09.637Z,50.51
2022-09-25T01:36:41.776Z,49.88
2022-09-25T01:39:22.835Z,50.61
2022-09-25T01:41:52.523Z,49.84
2022-09-25T01:44:31.316Z,49.73
2022-09-25T01:47:15.319Z,49.87
2022-09-25T01:49:50.660Z,49.86
2022-09-25T01:52:26.093Z,49.84
2022-09-25T01:55:02.715Z,50.48
2022-09-25T01:57:38.611Z,50.73
2022-09-25T02:00:10.365Z,50.41
2022-09-25T02:02:46.585Z,49.82
2022-09-25T02:05:31.293Z,50.20
2022-09-25T02:08:06.055Z,50.68
2022-09-25T02:10:43.594Z,51.03
2022-09-25T02:13:14.517Z,50.60
2022-09-25T02:15:45.674Z,51.29
2022-09-25T02:18:36.052Z,51.95
2022-09-25T02:21:38.558Z,51.38
2022-09-25T02:24:40.571Z,51.53
2022-09-25T02:27:07.547Z,51.57
2022-09-25T02:29:35.197Z,51.29
2022-09-25T02:32:32.487Z,51.54
2022-09-25T02:35:00.574Z,51.23
2022-09-25T02:37:30.044Z,51.33
2022-09-25T02:40:01.495Z,51.16
2022-09-25T02:42:39.808Z,50.92
2022-09-25T02:45:21.633Z,50.42
2022-09-25T02:47:54.655Z,50.46
2022-09-25T02:50:54.897Z,49.96
2022-09-25T02:53:33.818Z,50.57
2022-09-25T02:56:20.892Z,50.72
2022-09-25T02:59:02.673Z,50.66
2022-09-25T03:01:33.209Z,50.20
2022-09-25T03:04:01.799Z,50.84
2022-09-25T03:06:30.503Z,50.37
2022-09-25T03:08:59.643Z,50.54
2022-09-25T03:11:27.201Z,50.78
2022-09-25T03:14:01.822Z,50.54
2022-09-25T03:16:34.904Z,49.91
2022-09-25T03:19:03.348Z,50.11
2022-09-25T03:21:30.285Z,50.72
2022-09-25T03:23:57.349Z,50.32
2022-09-25T03:26:25.227Z,49.43
2022-09-25T03:28:52.428Z,49.22
2022-09-25T03:31:20.287Z,49.71
2022-09-25T03:33:48.936Z,50.51
2022-09-25T03:36:19.178Z,50.70
2022-09-25T03:38:48.346Z,50.44
2022-09-25T03:41:20.019Z,50.30
2022-09-25T03:43:51.622Z,50.97
2022-09-25T03:46:21.773Z,51.36
2022-09-25T03:48:49.025Z,51.28
2022-09-25T03:51:16.106Z,50.77
2022-09-25T03:53:43.213Z,50.99
2022-09-25T03:56:14.027Z,51.11
2022-09-25T03:58:41.324Z,51.42
2022-09-25T04:01:08.638Z,51.20
2022-09-25T04:03:35.608Z,51.07
2022-09-25T04:06:04.965Z,50.99
2022-09-25T04:08:33.212Z,51.33
2022-09-25T04:11:00.274Z,50.95
2022-09-25T04:13:30.325Z,51.18
2022-09-25T04:15:58.770Z,50.87
2022-09-25T04:18:28.271Z,50.24
2022-09-25T04:20:55.184Z,49.95
2022-09-25T04:23:22.151Z,50.73
2022-09-25T04:25:49.851Z,51.10
2022-09-25T04:28:16.851Z,50.92
2022-09-25T04:30:43.884Z,51.46
2022-09-25T04:33:29.495Z,52.25
2022-09-25T04:35:56.994Z,52.78
2022-09-25T04:38:24.042Z,52.85
2022-09-25T04:40:51.316Z,52.95
2022-09-25T04:43:18.548Z,53.08
2022-09-25T04:45:47.469Z,52.89
2022-09-25T04:48:14.442Z,53.44
2022-09-25T04:50:48.759Z,53.83
2022-09-25T04:53:16.514Z,53.97
2022-09-25T04:55:43.498Z,54.43
2022-09-25T04:58:11.324Z,54.19
2022-09-25T05:00:39.594Z,55.16
2022-09-25T05:03:06.884Z,55.27
2022-09-25T05:05:34.002Z,55.36
2022-09-25T05:08:02.552Z,55.58
2022-09-25T05:10:32.516Z,55.85
2022-09-25T05:13:04.534Z,56.33
2022-09-25T05:15:33.469Z,56.60
2022-09-25T05:18:13.590Z,57.11
2022-09-25T05:20:40.588Z,57.13
2022-09-25T05:23:07.686Z,56.99
2022-09-25T05:25:34.730Z,57.73
2022-09-25T05:28:02.422Z,57.82
2022-09-25T05:30:31.966Z,57.30
2022-09-25T05:32:59.587Z,54.68
2022-09-25T05:35:29.070Z,58.25
2022-09-25T05:37:56.222Z,54.87
2022-09-25T05:40:24.266Z,54.50
2022-09-25T05:42:52.177Z,54.00
2022-09-25T05:45:21.271Z,53.20
2022-09-25T05:47:48.414Z,53.56
2022-09-25T05:50:17.319Z,52.12
2022-09-25T05:52:44.690Z,50.32
2022-09-25T05:55:12.144Z,51.42
2022-09-25T05:57:39.468Z,52.81
2022-09-25T06:00:10.053Z,55.10
2022-09-25T06:02:40.125Z,55.56
2022-09-25T06:05:07.293Z,54.27
2022-09-25T06:07:34.237Z,54.57
2022-09-25T06:10:01.311Z,56.59
2022-09-25T06:12:31.927Z,56.02
2022-09-25T06:14:58.818Z,56.90
2022-09-25T06:17:25.682Z,55.04
2022-09-25T06:19:52.645Z,55.43
2022-09-25T06:22:19.543Z,56.48
2022-09-25T06:24:48.810Z,55.35
2022-09-25T06:27:15.795Z,55.59
2022-09-25T06:29:42.737Z,54.82
2022-09-25T06:32:09.757Z,54.10
2022-09-25T06:34:36.769Z,54.26
2022-09-25T06:37:04.013Z,54.46
2022-09-25T06:39:33.418Z,53.78
2022-09-25T06:42:00.489Z,53.45
2022-09-25T06:44:28.356Z,52.72
2022-09-25T06:46:55.429Z,51.43
2022-09-25T06:49:22.367Z,50.86
2022-09-25T06:51:51.218Z,51.29
2022-09-25T06:54:18.445Z,51.47
2022-09-25T06:56:49.733Z,51.71
2022-09-25T06:59:17.441Z,52.56
2022-09-25T07:01:44.503Z,52.30
2022-09-25T07:04:11.542Z,53.56
2022-09-25T07:06:38.815Z,52.79
2022-09-25T07:09:05.766Z,51.94
2022-09-25T07:11:32.753Z,51.66
2022-09-25T07:13:59.885Z,51.06
2022-09-25T07:16:30.748Z,47.15
2022-09-25T07:19:03.548Z,49.85
2022-09-25T07:21:32.431Z,50.19
2022-09-25T07:23:59.599Z,49.01
2022-09-25T07:26:29.802Z,50.78
2022-09-25T07:29:06.570Z,51.20
2022-09-25T07:31:40.192Z,51.29
2022-09-25T07:34:09.694Z,51.36
2022-09-25T07:36:38.845Z,51.31
2022-09-25T07:39:06.890Z,50.99
2022-09-25T07:41:34.808Z,47.74
2022-09-25T07:44:24.251Z,48.31
2022-09-25T07:46:49.076Z,45.94
2022-09-25T07:49:15.968Z,47.76
2022-09-25T07:51:42.943Z,48.47
2022-09-25T07:54:09.957Z,48.78
2022-09-25T07:56:38.372Z,48.29
2022-09-25T07:59:06.247Z,46.87
2022-09-25T08:01:33.463Z,46.78
2022-09-25T08:04:00.623Z,47.16
2022-09-25T08:06:27.593Z,47.11
2022-09-25T08:08:54.597Z,46.44
2022-09-25T08:11:23.397Z,45.88
2022-09-25T08:13:50.500Z,46.05
2022-09-25T08:16:19.174Z,45.30
2022-09-25T08:18:47.481Z,45.84
2022-09-25T08:21:17.112Z,44.98
2022-09-25T08:23:49.493Z,44.24
2022-09-25T08:26:17.423Z,44.48
2022-09-25T08:28:45.317Z,44.94
2022-09-25T08:31:14.736Z,43.77
2022-09-25T08:33:49.921Z,44.65
2022-09-25T08:36:17.190Z,44.34
2022-09-25T08:38:44.506Z,44.46
2022-09-25T08:41:21.342Z,44.27
2022-09-25T08:44:05.346Z,43.88
2022-09-25T08:47:02.044Z,44.19
2022-09-25T08:49:34.476Z,44.21
2022-09-25T08:52:07.018Z,43.46
2022-09-25T08:54:35.899Z,43.67
2022-09-25T08:57:38.082Z,43.44
2022-09-25T09:00:12.810Z,44.24
2022-09-25T09:02:54.431Z,43.97
2022-09-25T09:05:41.857Z,43.64
2022-09-25T09:08:18.168Z,43.83
2022-09-25T09:11:12.712Z,43.87
2022-09-25T09:13:49.770Z,43.25
2022-09-25T09:16:28.617Z,42.88
2022-09-25T09:18:56.926Z,41.78
2022-09-25T09:21:37.521Z,42.59
2022-09-25T09:24:29.088Z,40.83
2022-09-25T09:27:14.029Z,40.35
2022-09-25T09:29:57.746Z,40.54
2022-09-25T09:32:39.190Z,39.48
2022-09-25T09:35:33.985Z,37.31
2022-09-25T09:38:15.047Z,32.56
2022-09-25T09:41:03.844Z,26.85
2022-09-25T09:43:57.568Z,31.38
2022-09-25T09:46:38.412Z,26.20
2022-09-25T09:49:21.466Z,25.87
2022-09-25T09:51:51.487Z,28.95
2022-09-25T09:54:25.248Z,27.08
2022-09-25T09:56:55.480Z,29.84
2022-09-25T09:59:27.723Z,30.93
2022-09-25T10:02:16.553Z,30.53
2022-09-25T10:04:45.682Z,28.00
2022-09-25T10:07:16.889Z,29.33
2022-09-25T10:09:44.197Z,24.56
2022-09-25T10:12:24.318Z,26.24
2022-09-25T10:14:52.347Z,26.50
2022-09-25T10:17:24.347Z,25.68
2022-09-25T10:19:57.767Z,25.35
2022-09-25T10:22:28.398Z,28.66
2022-09-25T10:25:02.527Z,27.84
2022-09-25T10:27:29.472Z,28.57
2022-09-25T10:30:13.641Z,34.31
2022-09-25T10:33:07.206Z,30.52
2022-09-25T10:35:42.467Z,29.77
2022-09-25T10:38:25.172Z,30.05
2022-09-25T10:41:03.285Z,28.91
2022-09-25T10:43:30.529Z,31.08
2022-09-25T10:46:11.625Z,33.03
2022-09-25T10:48:58.179Z,30.81
2022-09-25T10:51:25.872Z,30.06
2022-09-25T10:54:13.134Z,29.48
2022-09-25T10:56:40.919Z,31.84
2022-09-25T10:59:18.594Z,29.89
2022-09-25T11:01:47.919Z,31.25
2022-09-25T11:04:20.701Z,32.48
2022-09-25T11:07:01.347Z,31.35
2022-09-25T11:09:30.200Z,30.89
2022-09-25T11:12:13.782Z,30.73
2022-09-25T11:14:55.399Z,32.20
2022-09-25T11:17:52.824Z,33.95
2022-09-25T11:20:42.652Z,32.42
2022-09-25T11:23:22.739Z,29.96
2022-09-25T11:26:07.148Z,30.06
2022-09-25T11:28:37.257Z,32.79
2022-09-25T11:31:30.189Z,35.44
2022-09-25T11:34:30.779Z,32.87
2022-09-25T11:37:10.981Z,36.71
2022-09-25T11:40:11.137Z,32.78
2022-09-25T11:43:05.763Z,33.14
2022-09-25T11:45:51.866Z,34.11
2022-09-25T11:48:25.134Z,36.32
2022-09-25T11:51:02.497Z,35.81
2022-09-25T11:53:35.284Z,29.74
2022-09-25T11:56:15.204Z,28.29
2022-09-25T11:59:02.277Z,30.65
2022-09-25T12:01:53.198Z,33.53
2022-09-25T12:04:43.666Z,33.58
2022-09-25T12:07:28.783Z,34.27
2022-09-25T12:10:15.969Z,30.37
2022-09-25T12:13:15.328Z,28.42
2022-09-25T12:15:57.013Z,29.92
2022-09-25T12:18:40.570Z,26.98
2022-09-25T12:21:12.643Z,25.97
2022-09-25T12:23:50.571Z,27.35
2022-09-25T12:26:23.324Z,23.22
2022-09-25T12:29:28.411Z,28.17
2022-09-25T12:32:46.017Z,25.46
2022-09-25T12:35:38.692Z,27.48
2022-09-25T12:38:35.033Z,27.20
2022-09-25T12:41:11.918Z,30.22
2022-09-25T12:43:48.564Z,27.24
2022-09-25T12:46:42.648Z,27.87
2022-09-25T12:49:23.338Z,28.43
2022-09-25T12:51:52.602Z,30.08
2022-09-25T12:54:38.337Z,25.09
2022-09-25T12:57:23.875Z,24.79
2022-09-25T12:59:59.268Z,26.29
2022-09-25T13:02:47.326Z,27.41
2022-09-25T13:05:34.448Z,30.74
2022-09-25T13:08:01.368Z,30.42
2022-09-25T13:10:38.596Z,29.72
2022-09-25T13:13:13.288Z,26.12
2022-09-25T13:15:42.584Z,24.89
2022-09-25T13:18:26.991Z,26.84
2022-09-25T13:20:56.013Z,26.83
2022-09-25T13:23:41.432Z,28.69
2022-09-25T13:26:18.616Z,30.50
2022-09-25T13:29:22.373Z,30.50
2022-09-25T13:31:50.240Z,31.30
2022-09-25T13:34:22.337Z,29.10
2022-09-25T13:36:58.571Z,29.32
2022-09-25T13:39:53.557Z,31.87
2022-09-25T13:42:44.148Z,31.42
2022-09-25T13:45:26.587Z,33.69
2022-09-25T13:48:10.167Z,33.61
2022-09-25T13:50:39.756Z,34.47
2022-09-25T13:53:18.963Z,32.71
2022-09-25T13:55:48.704Z,34.15
2022-09-25T13:58:27.146Z,32.88
2022-09-25T14:00:57.726Z,31.95
2022-09-25T14:03:44.757Z,27.82
2022-09-25T14:06:26.161Z,28.60
2022-09-25T14:08:57.338Z,27.20
2022-09-25T14:11:30.248Z,29.53
2022-09-25T14:14:00.219Z,29.25
2022-09-25T14:16:36.133Z,29.60
2022-09-25T14:19:04.997Z,29.83
2022-09-25T14:21:35.564Z,28.93
2022-09-25T14:24:24.829Z,30.97
2022-09-25T14:26:52.305Z,31.14
2022-09-25T14:29:23.927Z,32.33
2022-09-25T14:32:42.728Z,32.27
2022-09-25T14:35:19.382Z,32.20
2022-09-25T14:38:24.924Z,32.96
2022-09-25T14:41:18.835Z,33.25
2022-09-25T14:44:03.847Z,33.96
2022-09-25T14:46:34.327Z,34.39
2022-09-25T14:49:25.429Z,33.76
2022-09-25T14:51:55.693Z,33.11
2022-09-25T14:54:25.997Z,33.42
2022-09-25T14:56:57.600Z,34.05
2022-09-25T14:59:46.548Z,33.30
2022-09-25T15:02:18.912Z,33.72
2022-09-25T15:04:46.122Z,35.13
2022-09-25T15:07:17.449Z,36.01
2022-09-25T15:09:48.349Z,36.25
2022-09-25T15:12:30.376Z,36.33
2022-09-25T15:15:17.316Z,36.44
2022-09-25T15:17:59.309Z,36.70
2022-09-25T15:20:39.888Z,36.65
2022-09-25T15:23:14.452Z,35.33
2022-09-25T15:25:48.711Z,36.68
2022-09-25T15:28:18.573Z,36.54
2022-09-25T15:30:53.906Z,37.02
2022-09-25T15:33:29.828Z,37.06
2022-09-25T15:35:59.483Z,36.57
2022-09-25T15:38:33.238Z,36.54
2022-09-25T15:41:00.491Z,36.86
2022-09-25T15:43:27.831Z,37.54
2022-09-25T15:46:10.456Z,37.57
2022-09-25T15:48:40.841Z,37.42
2022-09-25T15:51:13.893Z,37.13
2022-09-25T15:53:44.423Z,37.36
2022-09-25T15:56:21.372Z,36.10
2022-09-25T15:58:58.715Z,36.12
2022-09-25T16:01:47.987Z,36.39
2022-09-25T16:04:42.846Z,36.28
2022-09-25T16:07:20.636Z,36.33
2022-09-25T16:09:47.739Z,36.45
2022-09-25T16:12:27.523Z,36.18
2022-09-25T16:14:55.960Z,36.52
2022-09-25T16:17:37.635Z,36.61
2022-09-25T16:20:42.935Z,37.11
2022-09-25T16:23:29.067Z,37.28
2022-09-25T16:25:58.658Z,38.30
2022-09-25T16:28:33.684Z,38.32
2022-09-25T16:31:00.786Z,37.21
2022-09-25T16:33:31.268Z,37.94
2022-09-25T16:36:16.210Z,38.35
2022-09-25T16:39:07.287Z,38.39
2022-09-25T16:41:36.156Z,38.95
2022-09-25T16:44:16.073Z,39.49
2022-09-25T16:46:44.953Z,39.59
2022-09-25T16:49:12.859Z,40.21
2022-09-25T16:51:46.319Z,40.12
2022-09-25T16:54:15.942Z,39.79
2022-09-25T16:56:44.216Z,39.46
2022-09-25T16:59:23.037Z,39.54
2022-09-25T17:01:55.954Z,39.30
2022-09-25T17:04:26.255Z,40.18
2022-09-25T17:06:54.456Z,40.37
2022-09-25T17:09:21.448Z,40.38
2022-09-25T17:11:50.324Z,40.52
2022-09-25T17:14:25.822Z,40.59
2022-09-25T17:16:54.617Z,40.72
2022-09-25T17:19:22.443Z,40.39
2022-09-25T17:21:51.587Z,40.53
2022-09-25T17:24:21.266Z,40.57
2022-09-25T17:26:48.299Z,40.41
2022-09-25T17:29:15.291Z,40.06
2022-09-25T17:31:42.323Z,40.23
2022-09-25T17:34:24.446Z,40.26
2022-09-25T17:36:52.748Z,41.19
2022-09-25T17:39:19.652Z,41.73
2022-09-25T17:41:47.543Z,42.21
2022-09-25T17:44:19.552Z,41.45
2022-09-25T17:46:46.826Z,41.99
2022-09-25T17:49:13.900Z,42.21
2022-09-25T17:51:41.138Z,41.88
2022-09-25T17:54:10.497Z,41.32
2022-09-25T17:56:39.394Z,41.63
2022-09-25T17:59:06.690Z,41.70
2022-09-25T18:01:39.240Z,42.10
2022-09-25T18:04:21.423Z,42.01
2022-09-25T18:06:48.875Z,41.72
2022-09-25T18:09:16.052Z,42.52
2022-09-25T18:11:43.770Z,42.74
2022-09-25T18:14:12.664Z,43.00
2022-09-25T18:16:42.318Z,43.62
2022-09-25T18:19:52.902Z,42.85
2022-09-25T18:22:21.967Z,42.11
2022-09-25T18:24:52.910Z,42.76
2022-09-25T18:27:22.902Z,42.72
2022-09-25T18:29:49.904Z,43.20
2022-09-25T18:32:16.943Z,42.92
2022-09-25T18:34:43.979Z,42.77
2022-09-25T18:37:11.656Z,42.89
2022-09-25T18:39:39.069Z,43.59
2022-09-25T18:42:06.357Z,43.75
2022-09-25T18:44:38.431Z,43.73
2022-09-25T18:47:08.653Z,43.86
2022-09-25T18:49:36.757Z,43.83
2022-09-25T18:52:04.038Z,44.23
2022-09-25T18:54:31.205Z,44.52
2022-09-25T18:56:58.817Z,44.64
2022-09-25T18:59:26.740Z,44.56
2022-09-25T19:01:55.867Z,44.70
2022-09-25T19:04:23.168Z,45.69
2022-09-25T19:06:50.304Z,45.77
2022-09-25T19:09:17.803Z,45.89
2022-09-25T19:11:45.508Z,45.95
2022-09-25T19:14:14.976Z,46.27
2022-09-25T19:16:42.193Z,46.93
2022-09-25T19:19:09.677Z,47.54
2022-09-25T19:21:36.649Z,47.71
2022-09-25T19:24:03.852Z,47.93
2022-09-25T19:26:31.201Z,48.05
2022-09-25T19:28:58.222Z,48.25
2022-09-25T19:31:26.797Z,48.92
2022-09-25T19:33:55.278Z,48.76
2022-09-25T19:36:30.366Z,49.24
2022-09-25T19:38:58.149Z,49.14
2022-09-25T19:41:28.251Z,49.25
2022-09-25T19:43:57.462Z,49.96
2022-09-25T19:46:26.114Z,49.50
2022-09-25T19:48:53.079Z,49.39
2022-09-25T19:51:22.467Z,49.14
2022-09-25T19:53:50.141Z,49.04
2022-09-25T19:56:19.282Z,49.15
2022-09-25T19:58:51.159Z,49.88
2022-09-25T20:01:22.436Z,49.60
2022-09-25T20:03:49.984Z,49.78
2022-09-25T20:06:17.834Z,49.61
2022-09-25T20:08:45.300Z,49.61
2022-09-25T20:11:23.808Z,49.43
2022-09-25T20:13:52.777Z,49.11
2022-09-25T20:16:24.317Z,49.12
2022-09-25T20:18:57.788Z,49.63
2022-09-25T20:21:26.601Z,48.96
2022-09-25T20:23:56.232Z,49.35
2022-09-25T20:26:23.617Z,49.16
2022-09-25T20:29:02.310Z,49.78
2022-09-25T20:31:31.148Z,50.23
2022-09-25T20:33:58.662Z,50.54
2022-09-25T20:36:25.653Z,50.29
2022-09-25T20:38:54.740Z,50.16
2022-09-25T20:41:23.136Z,50.27
2022-09-25T20:43:52.321Z,50.29
2022-09-25T20:46:20.494Z,50.80
2022-09-25T20:48:51.259Z,51.55
2022-09-25T20:51:21.339Z,52.06
2022-09-25T20:53:53.634Z,51.74
2022-09-25T20:56:22.039Z,51.92
2022-09-25T20:58:53.068Z,52.23
2022-09-25T21:01:23.530Z,52.84
2022-09-25T21:03:52.252Z,53.05
2022-09-25T21:06:25.293Z,53.30
2022-09-25T21:08:53.972Z,52.79
2022-09-25T21:11:21.867Z,53.68
2022-09-25T21:13:51.564Z,53.76
2022-09-25T21:16:20.077Z,53.83
2022-09-25T21:18:52.476Z,53.87
2022-09-25T21:21:19.631Z,54.88
2022-09-25T21:23:53.964Z,54.90
2022-09-25T21:26:22.923Z,54.59
2022-09-25T21:28:51.811Z,54.97
2022-09-25T21:31:34.799Z,54.84
2022-09-25T21:34:01.806Z,55.26
2022-09-25T21:36:29.064Z,55.48
2022-09-25T21:38:56.734Z,54.89
2022-09-25T21:41:25.379Z,55.53
2022-09-25T21:44:00.647Z,55.28
2022-09-25T21:46:28.723Z,55.42
2022-09-25T21:48:57.874Z,55.47
2022-09-25T21:51:28.478Z,55.87
2022-09-25T21:53:56.134Z,55.76
2022-09-25T21:56:25.702Z,56.16
2022-09-25T21:58:54.540Z,56.82
2022-09-25T22:01:27.560Z,56.86
2022-09-25T22:03:56.737Z,56.70
2022-09-25T22:06:29.069Z,56.40
2022-09-25T22:08:59.744Z,56.29
2022-09-25T22:11:27.723Z,56.21
2022-09-25T22:13:57.486Z,55.99
2022-09-25T22:16:25.730Z,56.38
2022-09-25T22:19:14.886Z,56.92
2022-09-25T22:21:43.602Z,56.69
2022-09-25T22:24:11.058Z,56.99
2022-09-25T22:26:40.642Z,56.78
2022-09-25T22:29:08.058Z,56.48
2022-09-25T22:31:36.166Z,56.49
2022-09-25T22:34:06.439Z,57.29
2022-09-25T22:36:36.048Z,57.45
2022-09-25T22:39:05.096Z,57.37
2022-09-25T22:41:32.769Z,56.97
2022-09-25T22:44:01.148Z,57.16
2022-09-25T22:46:29.020Z,56.92
2022-09-25T22:48:56.485Z,57.23
2022-09-25T22:51:25.360Z,57.25
2022-09-25T22:53:54.322Z,57.42
2022-09-25T22:56:25.417Z,57.56
2022-09-25T22:58:59.316Z,57.60
2022-09-25T23:01:48.427Z,58.22
2022-09-25T23:04:20.730Z,58.31
2022-09-25T23:06:48.591Z,57.90
2022-09-25T23:09:19.172Z,58.37
2022-09-25T23:11:46.764Z,57.92
2022-09-25T23:14:17.289Z,57.66
2022-09-25T23:16:46.421Z,57.83
2022-09-25T23:19:14.435Z,58.11
2022-09-25T23:21:41.738Z,58.17
2022-09-25T23:24:11.925Z,58.06
2022-09-25T23:26:39.063Z,58.39
2022-09-25T23:29:06.570Z,58.30
2022-09-25T23:31:33.999Z,58.41
2022-09-25T23:34:02.327Z,58.83
2022-09-25T23:36:30.329Z,58.96
2022-09-25T23:39:00.383Z,58.54
2022-09-25T23:41:30.552Z,59.04
2022-09-25T23:43:58.919Z,59.08
2022-09-25T23:46:28.682Z,58.84
2022-09-25T23:48:56.028Z,58.66
2022-09-25T23:51:23.716Z,58.26
2022-09-25T23:53:50.758Z,58.12
2022-09-25T23:56:20.491Z,58.27
2022-09-25T23:58:48.713Z,57.83
